Time,TemperatureF,DewpointF,PressureIn,WindDirection,WindDirectionDegrees,WindSpeedMPH,WindSpeedGustMPH,Humidity,HourlyPrecipIn,Conditions,Clouds,dailyrainin,SoftwareType,DateUTC
2013-03-30 00:00:00,49.1,45.1,30.25,SE,143,0.0,0.0,86,0.00,,,0.00,Wunderground v.1.15,2013-03-30 04:00:00,
2013-03-30 00:02:00,49.2,45.2,30.25,SE,143,0.0,0.0,86,0.00,,,0.00,Wunderground v.1.15,2013-03-30 04:02:00,
2013-03-30 00:03:00,49.2,45.5,30.25,SE,143,0.0,0.0,87,0.00,,,0.00,Wunderground v.1.15,2013-03-30 04:03:00,
2013-03-30 00:09:00,49.4,45.7,30.25,SE,143,0.0,0.0,87,0.00,,,0.00,Wunderground v.1.15,2013-03-30 04:09:00,
2013-03-30 00:14:00,49.4,45.7,30.25,SE,143,0.0,0.0,87,0.00,,,0.00,Wunderground v.1.15,2013-03-30 04:14:00,
2013-03-30 00:20:00,49.5,45.8,30.25,SE,143,0.0,0.0,87,0.00,,,0.00,Wunderground v.1.15,2013-03-30 04:20:00,
2013-03-30 00:25:00,49.8,46.4,30.25,SE,143,0.0,0.0,88,0.00,,,0.00,Wunderground v.1.15,2013-03-30 04:25:00,
2013-03-30 00:31:00,49.8,46.1,30.25,SE,143,0.0,0.0,87,0.00,,,0.00,Wunderground v.1.15,2013-03-30 04:31:00,
2013-03-30 00:36:00,49.9,46.5,30.25,SE,143,0.0,0.0,88,0.00,,,0.00,Wunderground v.1.15,2013-03-30 04:36:00,
2013-03-30 00:42:00,50.2,46.8,30.25,SE,143,0.0,0.0,88,0.00,,,0.00,Wunderground v.1.15,2013-03-30 04:42:00,
2013-03-30 00:47:00,50.4,47.0,30.25,SE,143,0.0,0.0,88,0.00,,,0.00,Wunderground v.1.15,2013-03-30 04:47:00,
2013-03-30 00:52:00,50.4,47.0,30.25,SE,143,0.0,0.0,88,0.00,,,0.00,Wunderground v.1.15,2013-03-30 04:52:00,
2013-03-30 00:57:00,50.5,47.1,30.25,SE,143,0.0,0.0,88,0.00,,,0.00,Wunderground v.1.15,2013-03-30 04:57:00,
2013-03-30 01:02:00,50.7,47.3,30.25,SE,143,0.0,0.0,88,0.00,,,0.00,Wunderground v.1.15,2013-03-30 05:02:00,
2013-03-30 01:07:00,50.8,47.4,30.25,SE,143,0.0,0.0,88,0.00,,,0.00,Wunderground v.1.15,2013-03-30 05:07:00,
2013-03-30 01:12:00,51.0,47.6,30.25,SE,143,0.0,0.0,88,0.00,,,0.00,Wunderground v.1.15,2013-03-30 05:12:00,
2013-03-30 01:18:00,51.0,47.6,30.25,SE,143,0.0,0.0,88,0.00,,,0.00,Wunderground v.1.15,2013-03-30 05:18:00,
2013-03-30 01:24:00,51.1,47.7,30.25,SE,143,0.0,0.0,88,0.00,,,0.00,Wunderground v.1.15,2013-03-30 05:24:00,
2013-03-30 01:29:00,51.1,47.7,30.25,SE,143,0.0,0.0,88,0.00,,,0.00,Wunderground v.1.15,2013-03-30 05:29:00,
2013-03-30 01:34:00,51.3,47.9,30.24,SE,143,0.0,0.0,88,0.00,,,0.00,Wunderground v.1.15,2013-03-30 05:34:00,
2013-03-30 01:40:00,51.4,48.0,30.24,SE,143,0.0,0.0,88,0.00,,,0.00,Wunderground v.1.15,2013-03-30 05:40:00,
2013-03-30 01:45:00,51.6,48.2,30.24,SE,143,0.0,0.0,88,0.00,,,0.00,Wunderground v.1.15,2013-03-30 05:45:00,
2013-03-30 01:52:00,51.6,47.9,30.24,SE,143,0.0,0.0,87,0.00,,,0.00,Wunderground v.1.15,2013-03-30 05:52:00,
2013-03-30 01:58:00,51.6,47.9,30.24,SE,143,0.0,0.0,87,0.00,,,0.00,Wunderground v.1.15,2013-03-30 05:58:00,
2013-03-30 02:03:00,51.7,48.0,30.23,SE,143,0.0,0.0,87,0.00,,,0.00,Wunderground v.1.15,2013-03-30 06:03:00,
2013-03-30 02:08:00,51.7,48.0,30.23,SE,143,0.0,0.0,87,0.00,,,0.00,Wunderground v.1.15,2013-03-30 06:08:00,
2013-03-30 02:13:00,51.7,48.0,30.23,SE,143,0.0,0.0,87,0.00,,,0.00,Wunderground v.1.15,2013-03-30 06:13:00,
2013-03-30 02:18:00,51.9,48.2,30.23,SE,143,0.0,0.0,87,0.00,,,0.00,Wunderground v.1.15,2013-03-30 06:18:00,
2013-03-30 02:24:00,51.9,48.2,30.23,SE,143,0.0,0.0,87,0.00,,,0.00,Wunderground v.1.15,2013-03-30 06:24:00,
2013-03-30 02:29:00,51.9,48.2,30.23,SE,143,0.0,0.0,87,0.00,,,0.00,Wunderground v.1.15,2013-03-30 06:29:00,
2013-03-30 02:34:00,51.9,48.2,30.23,SE,143,0.0,0.0,87,0.00,,,0.00,Wunderground v.1.15,2013-03-30 06:34:00,
2013-03-30 02:39:00,51.7,48.0,30.23,SE,143,0.0,0.0,87,0.00,,,0.00,Wunderground v.1.15,2013-03-30 06:39:00,
2013-03-30 02:44:00,51.7,48.0,30.23,SE,143,0.0,0.0,87,0.00,,,0.00,Wunderground v.1.15,2013-03-30 06:44:00,
2013-03-30 02:49:00,51.7,48.0,30.23,SE,143,0.0,0.0,87,0.00,,,0.00,Wunderground v.1.15,2013-03-30 06:49:00,
2013-03-30 02:54:00,51.7,48.0,30.23,SE,143,0.0,0.0,87,0.00,,,0.00,Wunderground v.1.15,2013-03-30 06:54:00,
2013-03-30 02:59:00,51.7,48.0,30.23,SE,143,0.0,0.0,87,0.00,,,0.00,Wunderground v.1.15,2013-03-30 06:59:00,
2013-03-30 03:04:00,51.7,48.0,30.23,SE,143,0.0,0.0,87,0.00,,,0.00,Wunderground v.1.15,2013-03-30 07:04:00,
2013-03-30 03:09:00,51.7,48.0,30.23,SE,143,0.0,0.0,87,0.00,,,0.00,Wunderground v.1.15,2013-03-30 07:09:00,
2013-03-30 03:14:00,51.7,48.0,30.23,SE,143,0.0,0.0,87,0.00,,,0.00,Wunderground v.1.15,2013-03-30 07:14:00,
2013-03-30 03:19:00,51.7,48.0,30.22,SE,143,0.0,0.0,87,0.00,,,0.00,Wunderground v.1.15,2013-03-30 07:19:00,
2013-03-30 03:24:00,51.7,48.0,30.22,SE,143,0.0,0.0,87,0.00,,,0.00,Wunderground v.1.15,2013-03-30 07:24:00,
2013-03-30 03:29:00,51.6,47.9,30.22,SE,143,0.0,0.0,87,0.00,,,0.00,Wunderground v.1.15,2013-03-30 07:29:00,
2013-03-30 03:34:00,51.6,48.2,30.22,SE,143,0.0,0.0,88,0.00,,,0.00,Wunderground v.1.15,2013-03-30 07:34:00,
2013-03-30 03:39:00,51.6,48.2,30.22,SE,143,0.0,0.0,88,0.00,,,0.00,Wunderground v.1.15,2013-03-30 07:39:00,
2013-03-30 03:44:00,51.6,48.2,30.21,SE,143,0.0,0.0,88,0.00,,,0.00,Wunderground v.1.15,2013-03-30 07:44:00,
2013-03-30 03:49:00,51.6,48.2,30.21,SE,143,0.0,0.0,88,0.00,,,0.00,Wunderground v.1.15,2013-03-30 07:49:00,
2013-03-30 03:54:00,51.6,48.2,30.21,SE,143,0.0,0.0,88,0.00,,,0.00,Wunderground v.1.15,2013-03-30 07:54:00,
2013-03-30 03:59:00,51.6,48.2,30.21,SE,143,0.0,0.0,88,0.00,,,0.00,Wunderground v.1.15,2013-03-30 07:59:00,
2013-03-30 04:04:00,51.4,48.0,30.21,SE,143,0.0,0.0,88,0.00,,,0.00,Wunderground v.1.15,2013-03-30 08:04:00,
2013-03-30 04:09:00,51.4,48.3,30.21,SE,143,0.0,0.0,89,0.00,,,0.00,Wunderground v.1.15,2013-03-30 08:09:00,
2013-03-30 04:14:00,51.4,48.3,30.21,SE,143,0.0,0.0,89,0.00,,,0.00,Wunderground v.1.15,2013-03-30 08:14:00,
2013-03-30 04:19:00,51.4,48.3,30.21,SE,143,0.0,0.0,89,0.00,,,0.00,Wunderground v.1.15,2013-03-30 08:19:00,
2013-03-30 04:24:00,51.4,48.3,30.21,SE,143,0.0,0.0,89,0.00,,,0.00,Wunderground v.1.15,2013-03-30 08:24:00,
2013-03-30 04:29:00,51.4,48.3,30.20,SE,143,0.0,0.0,89,0.00,,,0.00,Wunderground v.1.15,2013-03-30 08:29:00,
2013-03-30 04:34:00,51.3,48.2,30.20,SE,143,0.0,0.0,89,0.00,,,0.00,Wunderground v.1.15,2013-03-30 08:34:00,
2013-03-30 04:39:00,51.3,48.5,30.20,SE,143,0.0,0.0,90,0.00,,,0.00,Wunderground v.1.15,2013-03-30 08:39:00,
2013-03-30 04:45:00,51.3,48.5,30.21,SE,143,0.0,0.0,90,0.00,,,0.00,Wunderground v.1.15,2013-03-30 08:45:00,
2013-03-30 04:50:00,51.3,48.5,30.21,SE,143,0.0,0.0,90,0.00,,,0.00,Wunderground v.1.15,2013-03-30 08:50:00,
2013-03-30 04:55:00,51.3,48.5,30.21,SE,143,0.0,0.0,90,0.00,,,0.00,Wunderground v.1.15,2013-03-30 08:55:00,
2013-03-30 05:00:00,51.1,48.3,30.21,SE,143,0.0,0.0,90,0.00,,,0.00,Wunderground v.1.15,2013-03-30 09:00:00,
2013-03-30 05:05:00,51.1,48.3,30.21,SE,143,0.0,0.0,90,0.00,,,0.00,Wunderground v.1.15,2013-03-30 09:05:00,
2013-03-30 05:10:00,51.1,48.6,30.21,SE,143,0.0,0.0,91,0.00,,,0.00,Wunderground v.1.15,2013-03-30 09:10:00,
2013-03-30 05:15:00,51.1,48.6,30.22,SE,143,0.0,0.0,91,0.00,,,0.00,Wunderground v.1.15,2013-03-30 09:15:00,
2013-03-30 05:20:00,51.1,48.6,30.22,SE,143,0.0,0.0,91,0.00,,,0.00,Wunderground v.1.15,2013-03-30 09:20:00,
2013-03-30 05:25:00,51.1,48.6,30.22,SE,143,0.0,0.0,91,0.00,,,0.00,Wunderground v.1.15,2013-03-30 09:25:00,
2013-03-30 05:30:00,51.1,48.6,30.22,SE,143,0.0,0.0,91,0.00,,,0.00,Wunderground v.1.15,2013-03-30 09:30:00,
2013-03-30 05:34:00,51.0,48.5,30.22,SE,143,0.0,0.0,91,0.00,,,0.00,Wunderground v.1.15,2013-03-30 09:34:00,
2013-03-30 05:39:00,51.0,48.5,30.22,SE,143,0.0,0.0,91,0.00,,,0.00,Wunderground v.1.15,2013-03-30 09:39:00,
2013-03-30 05:44:00,51.0,48.5,30.22,SE,143,0.0,0.0,91,0.00,,,0.00,Wunderground v.1.15,2013-03-30 09:44:00,
2013-03-30 05:49:00,51.0,48.5,30.22,SE,143,0.0,0.0,91,0.00,,,0.00,Wunderground v.1.15,2013-03-30 09:49:00,
2013-03-30 05:54:00,50.8,48.3,30.22,SE,143,0.0,0.0,91,0.00,,,0.00,Wunderground v.1.15,2013-03-30 09:54:00,
2013-03-30 05:59:00,50.8,48.3,30.21,SE,143,0.0,0.0,91,0.00,,,0.00,Wunderground v.1.15,2013-03-30 09:59:00,
2013-03-30 06:04:00,50.8,48.6,30.21,SE,143,0.0,0.0,92,0.00,,,0.00,Wunderground v.1.15,2013-03-30 10:04:00,
2013-03-30 06:09:00,51.0,48.8,30.21,SE,143,0.0,0.0,92,0.00,,,0.00,Wunderground v.1.15,2013-03-30 10:09:00,
2013-03-30 06:14:00,51.0,48.8,30.21,SE,143,0.0,0.0,92,0.00,,,0.00,Wunderground v.1.15,2013-03-30 10:14:00,
2013-03-30 06:19:00,51.0,48.8,30.21,SE,143,0.0,0.0,92,0.00,,,0.00,Wunderground v.1.15,2013-03-30 10:19:00,
2013-03-30 06:24:00,51.0,48.8,30.21,SE,143,0.0,0.0,92,0.00,,,0.00,Wunderground v.1.15,2013-03-30 10:24:00,
2013-03-30 06:29:00,51.0,48.8,30.21,SE,143,0.0,0.0,92,0.00,,,0.00,Wunderground v.1.15,2013-03-30 10:29:00,
2013-03-30 06:34:00,51.0,48.8,30.21,SE,143,0.0,0.0,92,0.00,,,0.00,Wunderground v.1.15,2013-03-30 10:34:00,
2013-03-30 06:39:00,51.0,48.8,30.21,SE,143,0.0,0.0,92,0.00,,,0.00,Wunderground v.1.15,2013-03-30 10:39:00,
2013-03-30 06:44:00,51.0,48.8,30.21,SE,143,0.0,0.0,92,0.00,,,0.00,Wunderground v.1.15,2013-03-30 10:44:00,
2013-03-30 06:49:00,51.0,48.8,30.21,SE,143,0.0,0.0,92,0.00,,,0.00,Wunderground v.1.15,2013-03-30 10:49:00,
2013-03-30 06:55:00,51.0,48.8,30.21,SE,143,0.0,0.0,92,0.00,,,0.00,Wunderground v.1.15,2013-03-30 10:55:00,
2013-03-30 07:00:00,50.8,48.6,30.21,SE,143,0.0,0.0,92,0.00,,,0.00,Wunderground v.1.15,2013-03-30 11:00:00,
2013-03-30 07:05:00,50.8,48.6,30.21,SE,143,0.0,0.0,92,0.00,,,0.00,Wunderground v.1.15,2013-03-30 11:05:00,
2013-03-30 07:10:00,50.8,48.6,30.21,SE,143,0.0,0.0,92,0.00,,,0.00,Wunderground v.1.15,2013-03-30 11:10:00,
2013-03-30 07:15:00,50.8,48.6,30.21,SE,143,0.0,0.0,92,0.00,,,0.00,Wunderground v.1.15,2013-03-30 11:15:00,
2013-03-30 07:20:00,50.8,48.6,30.21,SE,143,0.0,0.0,92,0.00,,,0.00,Wunderground v.1.15,2013-03-30 11:20:00,
2013-03-30 07:25:00,50.8,48.6,30.21,SE,143,0.0,0.0,92,0.00,,,0.00,Wunderground v.1.15,2013-03-30 11:25:00,
2013-03-30 07:30:00,50.8,48.6,30.21,SE,143,0.0,0.0,92,0.00,,,0.00,Wunderground v.1.15,2013-03-30 11:30:00,
2013-03-30 07:35:00,50.8,48.6,30.21,SE,143,0.0,0.0,92,0.00,,,0.00,Wunderground v.1.15,2013-03-30 11:35:00,
2013-03-30 07:40:00,50.7,48.5,30.21,SE,143,0.0,0.0,92,0.00,,,0.00,Wunderground v.1.15,2013-03-30 11:40:00,
2013-03-30 07:45:00,50.7,48.5,30.21,SE,143,0.0,0.0,92,0.00,,,0.00,Wunderground v.1.15,2013-03-30 11:45:00,
2013-03-30 07:51:00,50.7,48.5,30.21,SE,143,0.0,0.0,92,0.00,,,0.00,Wunderground v.1.15,2013-03-30 11:51:00,
2013-03-30 07:56:00,50.7,48.5,30.21,SE,143,0.0,0.0,92,0.00,,,0.00,Wunderground v.1.15,2013-03-30 11:56:00,
2013-03-30 08:01:00,50.8,48.8,30.21,SE,143,0.0,0.0,93,0.00,,,0.00,Wunderground v.1.15,2013-03-30 12:01:00,
2013-03-30 08:06:00,51.0,49.0,30.21,SE,143,0.0,0.0,93,0.00,,,0.00,Wunderground v.1.15,2013-03-30 12:06:00,
2013-03-30 08:11:00,51.3,49.3,30.21,SE,143,0.0,0.0,93,0.00,,,0.00,Wunderground v.1.15,2013-03-30 12:11:00,
2013-03-30 08:16:00,51.6,49.9,30.21,SE,143,0.0,0.0,94,0.00,,,0.00,Wunderground v.1.15,2013-03-30 12:16:00,
2013-03-30 08:21:00,51.9,50.2,30.21,SE,143,0.0,0.0,94,0.00,,,0.00,Wunderground v.1.15,2013-03-30 12:21:00,
2013-03-30 08:26:00,52.5,50.8,30.21,SE,143,0.0,0.0,94,0.00,,,0.00,Wunderground v.1.15,2013-03-30 12:26:00,
2013-03-30 08:31:00,53.1,51.1,30.20,SE,143,0.0,0.0,93,0.00,,,0.00,Wunderground v.1.15,2013-03-30 12:31:00,
2013-03-30 08:36:00,53.8,51.2,30.20,SE,143,0.0,0.0,91,0.00,,,0.00,Wunderground v.1.15,2013-03-30 12:36:00,
2013-03-30 08:41:00,54.5,51.3,30.20,SE,143,0.0,0.0,89,0.00,,,0.00,Wunderground v.1.15,2013-03-30 12:41:00,
2013-03-30 08:46:00,55.1,51.6,30.21,SE,145,0.0,0.0,88,0.00,,,0.00,Wunderground v.1.15,2013-03-30 12:46:00,
2013-03-30 08:51:00,55.9,51.8,30.21,SE,139,0.0,0.0,86,0.00,,,0.00,Wunderground v.1.15,2013-03-30 12:51:00,
2013-03-30 08:56:00,56.5,51.7,30.21,SE,139,0.0,0.0,84,0.00,,,0.00,Wunderground v.1.15,2013-03-30 12:56:00,
2013-03-30 09:02:00,56.9,51.8,30.21,SE,139,0.0,0.0,83,0.00,,,0.00,Wunderground v.1.15,2013-03-30 13:02:00,
2013-03-30 09:07:00,57.2,51.4,30.21,SE,139,0.0,0.0,81,0.00,,,0.00,Wunderground v.1.15,2013-03-30 13:07:00,
2013-03-30 09:12:00,57.6,50.8,30.21,West,277,0.0,2.0,78,0.00,,,0.00,Wunderground v.1.15,2013-03-30 13:12:00,
2013-03-30 09:17:00,58.0,50.5,30.21,West,259,1.0,2.0,76,0.00,,,0.00,Wunderground v.1.15,2013-03-30 13:17:00,
2013-03-30 09:22:00,58.4,50.1,30.21,West,259,0.0,1.0,74,0.00,,,0.00,Wunderground v.1.15,2013-03-30 13:22:00,
2013-03-30 09:27:00,58.9,49.5,30.21,WSW,245,0.0,3.0,71,0.00,,,0.00,Wunderground v.1.15,2013-03-30 13:27:00,
2013-03-30 09:32:00,59.2,49.4,30.21,WSW,245,0.0,1.0,70,0.00,,,0.00,Wunderground v.1.15,2013-03-30 13:32:00,
2013-03-30 09:37:00,59.5,48.9,30.21,WSW,245,0.0,2.0,68,0.00,,,0.00,Wunderground v.1.15,2013-03-30 13:37:00,
2013-03-30 09:42:00,59.8,48.8,30.21,WSW,245,0.0,2.0,67,0.00,,,0.00,Wunderground v.1.15,2013-03-30 13:42:00,
2013-03-30 09:47:00,60.4,48.6,30.21,WSW,241,0.0,3.0,65,0.00,,,0.00,Wunderground v.1.15,2013-03-30 13:47:00,
2013-03-30 09:52:00,61.0,48.3,30.21,WSW,243,2.0,3.0,63,0.00,,,0.00,Wunderground v.1.15,2013-03-30 13:52:00,
2013-03-30 09:58:00,61.3,48.2,30.21,SW,235,2.0,3.0,62,0.00,,,0.00,Wunderground v.1.15,2013-03-30 13:58:00,
2013-03-30 10:03:00,61.8,48.2,30.20,SSW,204,0.0,1.0,61,0.00,,,0.00,Wunderground v.1.15,2013-03-30 14:03:00,
2013-03-30 10:08:00,61.8,48.6,30.20,East,91,0.0,2.0,62,0.00,,,0.00,Wunderground v.1.15,2013-03-30 14:08:00,
2013-03-30 10:13:00,61.6,48.4,30.20,SW,222,1.0,2.0,62,0.00,,,0.00,Wunderground v.1.15,2013-03-30 14:13:00,
2013-03-30 10:18:00,61.5,48.8,30.20,North,353,2.0,2.0,63,0.00,,,0.00,Wunderground v.1.15,2013-03-30 14:18:00,
2013-03-30 10:23:00,61.3,49.0,30.20,WSW,257,0.0,2.0,64,0.00,,,0.00,Wunderground v.1.15,2013-03-30 14:23:00,
2013-03-30 10:28:00,61.3,49.0,30.20,West,281,0.0,3.0,64,0.00,,,0.00,Wunderground v.1.15,2013-03-30 14:28:00,
2013-03-30 10:33:00,61.6,49.3,30.19,West,266,0.0,2.0,64,0.00,,,0.00,Wunderground v.1.15,2013-03-30 14:33:00,
2013-03-30 10:39:00,62.1,49.8,30.19,West,263,0.0,2.0,64,0.00,,,0.00,Wunderground v.1.15,2013-03-30 14:39:00,
2013-03-30 10:44:00,62.7,49.9,30.19,WSW,253,1.0,3.0,63,0.00,,,0.00,Wunderground v.1.15,2013-03-30 14:44:00,
2013-03-30 10:49:00,63.1,49.9,30.20,WSW,253,1.0,3.0,62,0.00,,,0.00,Wunderground v.1.15,2013-03-30 14:49:00,
2013-03-30 10:54:00,63.7,50.4,30.20,WSW,253,0.0,2.0,62,0.00,,,0.00,Wunderground v.1.15,2013-03-30 14:54:00,
2013-03-30 10:59:00,64.3,50.6,30.20,ENE,78,1.0,2.0,61,0.00,,,0.00,Wunderground v.1.15,2013-03-30 14:59:00,
2013-03-30 11:04:00,65.0,49.4,30.20,WSW,246,1.0,2.0,57,0.00,,,0.00,Wunderground v.1.15,2013-03-30 15:04:00,
2013-03-30 11:09:00,65.3,49.7,30.20,WSW,246,0.0,2.0,57,0.00,,,0.00,Wunderground v.1.15,2013-03-30 15:09:00,
2013-03-30 11:14:00,65.8,47.7,30.20,WSW,246,2.0,2.0,52,0.00,,,0.00,Wunderground v.1.15,2013-03-30 15:14:00,
2013-03-30 11:19:00,65.6,47.0,30.19,WSW,245,1.0,5.0,51,0.00,,,0.00,Wunderground v.1.15,2013-03-30 15:19:00,
2013-03-30 11:24:00,65.6,48.0,30.19,WSW,245,1.0,3.0,53,0.00,,,0.00,Wunderground v.1.15,2013-03-30 15:24:00,
2013-03-30 11:29:00,65.5,47.4,30.19,WSW,248,0.0,3.0,52,0.00,,,0.00,Wunderground v.1.15,2013-03-30 15:29:00,
2013-03-30 11:34:00,65.5,48.4,30.19,WSW,248,0.0,2.0,54,0.00,,,0.00,Wunderground v.1.15,2013-03-30 15:34:00,
2013-03-30 11:39:00,65.6,48.0,30.19,WSW,248,1.0,2.0,53,0.00,,,0.00,Wunderground v.1.15,2013-03-30 15:39:00,
2013-03-30 11:44:00,65.8,48.2,30.19,WSW,248,0.0,2.0,53,0.00,,,0.00,Wunderground v.1.15,2013-03-30 15:44:00,
2013-03-30 11:49:00,65.8,48.7,30.19,WSW,248,0.0,2.0,54,0.00,,,0.00,Wunderground v.1.15,2013-03-30 15:49:00,
2013-03-30 11:54:00,65.8,48.7,30.19,WSW,246,0.0,1.0,54,0.00,,,0.00,Wunderground v.1.15,2013-03-30 15:54:00,
2013-03-30 11:59:00,65.8,48.7,30.19,WSW,248,0.0,1.0,54,0.00,,,0.00,Wunderground v.1.15,2013-03-30 15:59:00,
2013-03-30 12:04:00,66.0,48.9,30.19,WSW,248,2.0,2.0,54,0.00,,,0.00,Wunderground v.1.15,2013-03-30 16:04:00,
2013-03-30 12:09:00,66.1,49.5,30.19,WSW,248,0.0,2.0,55,0.00,,,0.00,Wunderground v.1.15,2013-03-30 16:09:00,
2013-03-30 12:14:00,66.3,49.6,30.19,WSW,248,0.0,1.0,55,0.00,,,0.00,Wunderground v.1.15,2013-03-30 16:14:00,
2013-03-30 12:19:00,66.3,49.2,30.19,WSW,248,1.0,1.0,54,0.00,,,0.00,Wunderground v.1.15,2013-03-30 16:19:00,
2013-03-30 12:24:00,66.3,49.2,30.19,WSW,248,0.0,0.0,54,0.00,,,0.00,Wunderground v.1.15,2013-03-30 16:24:00,
2013-03-30 12:29:00,66.4,49.2,30.18,WSW,248,0.0,2.0,54,0.00,,,0.00,Wunderground v.1.15,2013-03-30 16:29:00,
2013-03-30 12:34:00,66.3,49.2,30.18,WSW,248,0.0,2.0,54,0.00,,,0.00,Wunderground v.1.15,2013-03-30 16:34:00,
2013-03-30 12:39:00,66.1,49.0,30.18,WSW,248,0.0,2.0,54,0.00,,,0.00,Wunderground v.1.15,2013-03-30 16:39:00,
2013-03-30 12:44:00,66.0,48.9,30.18,WSW,248,0.0,0.0,54,0.00,,,0.00,Wunderground v.1.15,2013-03-30 16:44:00,
2013-03-30 12:49:00,65.8,47.7,30.18,WSW,248,2.0,2.0,52,0.00,,,0.00,Wunderground v.1.15,2013-03-30 16:49:00,
2013-03-30 12:54:00,65.5,47.4,30.18,WSW,243,1.0,3.0,52,0.00,,,0.00,Wunderground v.1.15,2013-03-30 16:54:00,
2013-03-30 12:59:00,65.6,48.5,30.18,WSW,243,0.0,3.0,54,0.00,,,0.00,Wunderground v.1.15,2013-03-30 16:59:00,
2013-03-30 13:04:00,66.1,48.5,30.18,WSW,243,1.0,2.0,53,0.00,,,0.00,Wunderground v.1.15,2013-03-30 17:04:00,
2013-03-30 13:10:00,66.4,48.7,30.18,ESE,106,0.0,1.0,53,0.00,,,0.00,Wunderground v.1.15,2013-03-30 17:10:00,
2013-03-30 13:15:00,67.1,49.4,30.17,SE,140,1.0,3.0,53,0.00,,,0.00,Wunderground v.1.15,2013-03-30 17:15:00,
2013-03-30 13:20:00,67.8,49.5,30.17,SSE,163,0.0,0.0,52,0.00,,,0.00,Wunderground v.1.15,2013-03-30 17:20:00,
2013-03-30 13:25:00,68.6,49.7,30.17,SSE,167,0.0,2.0,51,0.00,,,0.00,Wunderground v.1.15,2013-03-30 17:25:00,
2013-03-30 13:30:00,69.3,49.9,30.16,SW,217,1.0,1.0,50,0.00,,,0.00,Wunderground v.1.15,2013-03-30 17:30:00,
2013-03-30 13:35:00,69.6,49.6,30.16,SW,218,0.0,2.0,49,0.00,,,0.00,Wunderground v.1.15,2013-03-30 17:35:00,
2013-03-30 13:40:00,69.9,49.3,30.16,SW,225,2.0,2.0,48,0.00,,,0.00,Wunderground v.1.15,2013-03-30 17:40:00,
2013-03-30 13:45:00,69.9,49.9,30.15,SW,225,0.0,2.0,49,0.00,,,0.00,Wunderground v.1.15,2013-03-30 17:45:00,
2013-03-30 13:50:00,70.4,49.8,30.15,SW,225,0.0,0.0,48,0.00,,,0.00,Wunderground v.1.15,2013-03-30 17:50:00,
2013-03-30 13:55:00,71.1,50.4,30.15,SW,215,0.0,2.0,48,0.00,,,0.00,Wunderground v.1.15,2013-03-30 17:55:00,
2013-03-30 14:00:00,71.5,49.6,30.14,West,259,0.0,1.0,46,0.00,,,0.00,Wunderground v.1.15,2013-03-30 18:00:00,
2013-03-30 14:05:00,71.8,49.9,30.14,West,269,0.0,1.0,46,0.00,,,0.00,Wunderground v.1.15,2013-03-30 18:05:00,
2013-03-30 14:10:00,72.1,49.6,30.14,South,177,0.0,0.0,45,0.00,,,0.00,Wunderground v.1.15,2013-03-30 18:10:00,
2013-03-30 14:15:00,72.3,48.5,30.13,WSW,242,0.0,2.0,43,0.00,,,0.00,Wunderground v.1.15,2013-03-30 18:15:00,
2013-03-30 14:20:00,72.1,48.4,30.13,SW,236,0.0,0.0,43,0.00,,,0.00,Wunderground v.1.15,2013-03-30 18:20:00,
2013-03-30 14:25:00,72.3,49.2,30.13,West,263,0.0,2.0,44,0.00,,,0.00,Wunderground v.1.15,2013-03-30 18:25:00,
2013-03-30 14:30:00,72.3,49.2,30.12,SW,222,0.0,1.0,44,0.00,,,0.00,Wunderground v.1.15,2013-03-30 18:30:00,
2013-03-30 14:36:00,72.1,48.4,30.12,WSW,257,0.0,3.0,43,0.00,,,0.00,Wunderground v.1.15,2013-03-30 18:36:00,
2013-03-30 14:41:00,72.1,48.4,30.12,South,187,0.0,1.0,43,0.00,,,0.00,Wunderground v.1.15,2013-03-30 18:41:00,
2013-03-30 14:46:00,72.5,48.7,30.12,WNW,298,1.0,3.0,43,0.00,,,0.00,Wunderground v.1.15,2013-03-30 18:46:00,
2013-03-30 14:51:00,72.5,47.5,30.12,WSW,246,0.0,2.0,41,0.00,,,0.00,Wunderground v.1.15,2013-03-30 18:51:00,
2013-03-30 14:56:00,72.3,47.3,30.12,SW,235,2.0,3.0,41,0.00,,,0.00,Wunderground v.1.15,2013-03-30 18:56:00,
2013-03-30 15:01:00,72.3,47.3,30.11,West,263,1.0,1.0,41,0.00,,,0.00,Wunderground v.1.15,2013-03-30 19:01:00,
2013-03-30 15:06:00,72.1,47.1,30.11,WSW,245,2.0,3.0,41,0.00,,,0.00,Wunderground v.1.15,2013-03-30 19:06:00,
2013-03-30 15:11:00,72.0,45.7,30.11,WSW,243,1.0,6.0,39,0.00,,,0.00,Wunderground v.1.15,2013-03-30 19:11:00,
2013-03-30 15:17:00,72.1,45.8,30.11,West,265,1.0,6.0,39,0.00,,,0.00,Wunderground v.1.15,2013-03-30 19:17:00,
2013-03-30 15:22:00,72.3,45.3,30.11,WSW,241,0.0,1.0,38,0.00,,,0.00,Wunderground v.1.15,2013-03-30 19:22:00,
2013-03-30 15:27:00,72.5,45.4,30.11,WSW,250,1.0,3.0,38,0.00,,,0.00,Wunderground v.1.15,2013-03-30 19:27:00,
2013-03-30 15:32:00,72.5,46.1,30.10,WSW,250,0.0,2.0,39,0.00,,,0.00,Wunderground v.1.15,2013-03-30 19:32:00,
2013-03-30 15:37:00,72.7,44.2,30.10,WSW,249,1.0,2.0,36,0.00,,,0.00,Wunderground v.1.15,2013-03-30 19:37:00,
2013-03-30 15:42:00,72.7,44.2,30.10,WSW,249,1.0,4.0,36,0.00,,,0.00,Wunderground v.1.15,2013-03-30 19:42:00,
2013-03-30 15:47:00,72.5,43.3,30.10,WSW,241,1.0,4.0,35,0.00,,,0.00,Wunderground v.1.15,2013-03-30 19:47:00,
2013-03-30 15:52:00,72.3,42.3,30.10,WSW,256,1.0,2.0,34,0.00,,,0.00,Wunderground v.1.15,2013-03-30 19:52:00,
2013-03-30 15:57:00,72.3,41.6,30.10,WSW,257,1.0,3.0,33,0.00,,,0.00,Wunderground v.1.15,2013-03-30 19:57:00,
2013-03-30 16:02:00,72.5,41.0,30.09,WSW,243,2.0,3.0,32,0.00,,,0.00,Wunderground v.1.15,2013-03-30 20:02:00,
2013-03-30 16:07:00,72.1,41.4,30.09,WSW,248,3.0,4.0,33,0.00,,,0.00,Wunderground v.1.15,2013-03-30 20:07:00,
2013-03-30 16:12:00,72.0,41.3,30.09,WSW,252,2.0,5.0,33,0.00,,,0.00,Wunderground v.1.15,2013-03-30 20:12:00,
2013-03-30 16:18:00,71.8,42.7,30.09,WSW,241,1.0,5.0,35,0.00,,,0.00,Wunderground v.1.15,2013-03-30 20:18:00,
2013-03-30 16:23:00,72.1,42.9,30.09,ESE,123,3.0,3.0,35,0.00,,,0.00,Wunderground v.1.15,2013-03-30 20:23:00,
2013-03-30 16:28:00,72.1,42.2,30.09,West,259,2.0,3.0,34,0.00,,,0.00,Wunderground v.1.15,2013-03-30 20:28:00,
2013-03-30 16:33:00,72.1,42.9,30.09,WSW,250,0.0,3.0,35,0.00,,,0.00,Wunderground v.1.15,2013-03-30 20:33:00,
2013-03-30 16:38:00,72.3,43.1,30.09,WSW,250,1.0,4.0,35,0.00,,,0.00,Wunderground v.1.15,2013-03-30 20:38:00,
2013-03-30 16:43:00,72.0,43.6,30.09,West,269,2.0,2.0,36,0.00,,,0.00,Wunderground v.1.15,2013-03-30 20:43:00,
2013-03-30 16:48:00,71.8,42.7,30.09,WSW,250,0.0,3.0,35,0.00,,,0.00,Wunderground v.1.15,2013-03-30 20:48:00,
2013-03-30 16:53:00,71.3,43.0,30.09,WSW,252,0.0,3.0,36,0.00,,,0.00,Wunderground v.1.15,2013-03-30 20:53:00,
2013-03-30 16:58:00,71.5,43.8,30.09,WSW,246,1.0,3.0,37,0.00,,,0.00,Wunderground v.1.15,2013-03-30 20:58:00,
2013-03-30 17:03:00,71.3,42.2,30.09,WSW,246,2.0,2.0,35,0.00,,,0.00,Wunderground v.1.15,2013-03-30 21:03:00,
2013-03-30 17:08:00,71.1,44.2,30.09,West,260,2.0,2.0,38,0.00,,,0.00,Wunderground v.1.15,2013-03-30 21:08:00,
2013-03-30 17:13:00,70.8,43.9,30.09,West,273,0.0,3.0,38,0.00,,,0.00,Wunderground v.1.15,2013-03-30 21:13:00,
2013-03-30 17:19:00,70.8,43.2,30.08,WSW,245,1.0,3.0,37,0.00,,,0.00,Wunderground v.1.15,2013-03-30 21:19:00,
2013-03-30 17:24:00,70.6,43.1,30.08,SW,235,2.0,3.0,37,0.00,,,0.00,Wunderground v.1.15,2013-03-30 21:24:00,
2013-03-30 17:29:00,70.3,43.5,30.08,WSW,238,2.0,3.0,38,0.00,,,0.00,Wunderground v.1.15,2013-03-30 21:29:00,
2013-03-30 17:34:00,70.1,42.6,30.08,WSW,239,1.0,2.0,37,0.00,,,0.00,Wunderground v.1.15,2013-03-30 21:34:00,
2013-03-30 17:39:00,70.1,43.3,30.08,SSE,147,0.0,2.0,38,0.00,,,0.00,Wunderground v.1.15,2013-03-30 21:39:00,
2013-03-30 17:44:00,69.8,42.3,30.08,WSW,256,1.0,2.0,37,0.00,,,0.00,Wunderground v.1.15,2013-03-30 21:44:00,
2013-03-30 17:49:00,69.6,42.9,30.08,WSW,255,0.0,2.0,38,0.00,,,0.00,Wunderground v.1.15,2013-03-30 21:49:00,
2013-03-30 17:54:00,69.3,42.6,30.08,WSW,256,0.0,2.0,38,0.00,,,0.00,Wunderground v.1.15,2013-03-30 21:54:00,
2013-03-30 17:59:00,69.1,42.4,30.08,SE,130,0.0,2.0,38,0.00,,,0.00,Wunderground v.1.15,2013-03-30 21:59:00,
2013-03-30 18:04:00,68.9,42.9,30.08,West,259,1.0,2.0,39,0.00,,,0.00,Wunderground v.1.15,2013-03-30 22:04:00,
2013-03-30 18:09:00,68.6,43.3,30.08,WSW,257,0.0,3.0,40,0.00,,,0.00,Wunderground v.1.15,2013-03-30 22:09:00,
2013-03-30 18:14:00,68.3,43.7,30.08,WSW,257,0.0,1.0,41,0.00,,,0.00,Wunderground v.1.15,2013-03-30 22:14:00,
2013-03-30 18:20:00,68.1,44.7,30.08,WSW,257,0.0,0.0,43,0.00,,,0.00,Wunderground v.1.15,2013-03-30 22:20:00,
2013-03-30 18:25:00,67.8,44.5,30.08,WSW,257,0.0,1.0,43,0.00,,,0.00,Wunderground v.1.15,2013-03-30 22:25:00,
2013-03-30 18:30:00,67.3,44.6,30.09,West,266,1.0,1.0,44,0.00,,,0.00,Wunderground v.1.15,2013-03-30 22:30:00,
2013-03-30 18:35:00,66.9,44.9,30.09,West,266,0.0,1.0,45,0.00,,,0.00,Wunderground v.1.15,2013-03-30 22:35:00,
2013-03-30 18:40:00,66.6,45.2,30.09,WSW,255,0.0,1.0,46,0.00,,,0.00,Wunderground v.1.15,2013-03-30 22:40:00,
2013-03-30 18:45:00,66.1,45.3,30.09,WSW,255,0.0,3.0,47,0.00,,,0.00,Wunderground v.1.15,2013-03-30 22:45:00,
2013-03-30 18:50:00,65.8,46.1,30.09,WSW,255,0.0,0.0,49,0.00,,,0.00,Wunderground v.1.15,2013-03-30 22:50:00,
2013-03-30 18:55:00,65.5,46.4,30.09,WSW,255,0.0,1.0,50,0.00,,,0.00,Wunderground v.1.15,2013-03-30 22:55:00,
2013-03-30 19:00:00,65.2,46.6,30.09,WSW,255,2.0,2.0,51,0.00,,,0.00,Wunderground v.1.15,2013-03-30 23:00:00,
2013-03-30 19:05:00,64.8,46.8,30.09,WSW,255,0.0,2.0,52,0.00,,,0.00,Wunderground v.1.15,2013-03-30 23:05:00,
2013-03-30 19:10:00,64.5,47.0,30.09,WSW,255,0.0,0.0,53,0.00,,,0.00,Wunderground v.1.15,2013-03-30 23:10:00,
2013-03-30 19:15:00,64.2,47.2,30.09,WSW,253,0.0,2.0,54,0.00,,,0.00,Wunderground v.1.15,2013-03-30 23:15:00,
2013-03-30 19:20:00,63.7,47.2,30.09,WSW,253,0.0,0.0,55,0.00,,,0.00,Wunderground v.1.15,2013-03-30 23:20:00,
2013-03-30 19:25:00,63.4,47.9,30.09,WSW,253,1.0,2.0,57,0.00,,,0.00,Wunderground v.1.15,2013-03-30 23:25:00,
2013-03-30 19:30:00,63.1,48.1,30.09,WSW,253,0.0,0.0,58,0.00,,,0.00,Wunderground v.1.15,2013-03-30 23:30:00,
2013-03-30 19:35:00,62.7,48.2,30.09,WSW,253,0.0,1.0,59,0.00,,,0.00,Wunderground v.1.15,2013-03-30 23:35:00,
2013-03-30 19:40:00,62.4,48.3,30.09,WSW,253,0.0,0.0,60,0.00,,,0.00,Wunderground v.1.15,2013-03-30 23:40:00,
2013-03-30 19:45:00,62.1,48.5,30.09,WSW,253,0.0,0.0,61,0.00,,,0.00,Wunderground v.1.15,2013-03-30 23:45:00,
2013-03-30 19:50:00,62.0,48.8,30.09,WSW,253,0.0,0.0,62,0.00,,,0.00,Wunderground v.1.15,2013-03-30 23:50:00,
2013-03-30 19:55:00,61.6,48.4,30.09,WSW,253,0.0,0.0,62,0.00,,,0.00,Wunderground v.1.15,2013-03-30 23:55:00,
2013-03-30 20:00:00,61.5,48.8,30.09,WSW,253,0.0,0.0,63,0.00,,,0.00,Wunderground v.1.15,2013-03-31 00:00:00,
2013-03-30 20:05:00,61.3,48.6,30.09,WSW,253,0.0,0.0,63,0.00,,,0.00,Wunderground v.1.15,2013-03-31 00:05:00,
2013-03-30 20:10:00,61.2,48.9,30.09,WSW,253,0.0,0.0,64,0.00,,,0.00,Wunderground v.1.15,2013-03-31 00:10:00,
2013-03-30 20:15:00,61.0,49.1,30.09,WSW,253,0.0,0.0,65,0.00,,,0.00,Wunderground v.1.15,2013-03-31 00:15:00,
2013-03-30 20:20:00,60.7,48.9,30.09,WSW,253,0.0,0.0,65,0.00,,,0.00,Wunderground v.1.15,2013-03-31 00:20:00,
2013-03-30 20:25:00,60.5,49.1,30.09,WSW,253,0.0,1.0,66,0.00,,,0.00,Wunderground v.1.15,2013-03-31 00:25:00,
2013-03-30 20:30:00,60.4,49.4,30.10,WSW,253,0.0,0.0,67,0.00,,,0.00,Wunderground v.1.15,2013-03-31 00:30:00,
2013-03-30 20:35:00,60.2,49.6,30.10,WSW,253,0.0,0.0,68,0.00,,,0.00,Wunderground v.1.15,2013-03-31 00:35:00,
2013-03-30 20:40:00,60.1,49.9,30.10,WSW,253,0.0,0.0,69,0.00,,,0.00,Wunderground v.1.15,2013-03-31 00:40:00,
2013-03-30 20:45:00,59.9,50.1,30.10,WSW,253,0.0,0.0,70,0.00,,,0.00,Wunderground v.1.15,2013-03-31 00:45:00,
2013-03-30 20:50:00,59.8,50.4,30.10,WSW,253,0.0,0.0,71,0.00,,,0.00,Wunderground v.1.15,2013-03-31 00:50:00,
2013-03-30 20:55:00,59.6,50.6,30.10,WSW,253,0.0,0.0,72,0.00,,,0.00,Wunderground v.1.15,2013-03-31 00:55:00,
2013-03-30 21:00:00,59.5,50.8,30.10,WSW,253,0.0,0.0,73,0.00,,,0.00,Wunderground v.1.15,2013-03-31 01:00:00,
2013-03-30 21:05:00,59.3,51.0,30.10,WSW,253,0.0,0.0,74,0.00,,,0.00,Wunderground v.1.15,2013-03-31 01:05:00,
2013-03-30 21:10:00,59.2,51.3,30.10,WSW,253,0.0,0.0,75,0.00,,,0.00,Wunderground v.1.15,2013-03-31 01:10:00,
2013-03-30 21:16:00,59.0,51.4,30.10,WSW,253,0.0,0.0,76,0.00,,,0.00,Wunderground v.1.15,2013-03-31 01:16:00,
2013-03-30 21:21:00,59.0,51.4,30.10,WSW,253,0.0,0.0,76,0.00,,,0.00,Wunderground v.1.15,2013-03-31 01:21:00,
2013-03-30 21:26:00,58.9,51.7,30.10,WSW,253,0.0,0.0,77,0.00,,,0.00,Wunderground v.1.15,2013-03-31 01:26:00,
2013-03-30 21:31:00,58.9,52.1,30.10,WSW,253,0.0,0.0,78,0.00,,,0.00,Wunderground v.1.15,2013-03-31 01:31:00,
2013-03-30 21:36:00,58.7,51.9,30.10,WSW,253,0.0,0.0,78,0.00,,,0.00,Wunderground v.1.15,2013-03-31 01:36:00,
2013-03-30 21:41:00,58.7,52.2,30.10,WSW,253,0.0,0.0,79,0.00,,,0.00,Wunderground v.1.15,2013-03-31 01:41:00,
2013-03-30 21:47:00,58.7,52.2,30.10,WSW,253,0.0,0.0,79,0.00,,,0.00,Wunderground v.1.15,2013-03-31 01:47:00,
2013-03-30 21:52:00,58.7,52.5,30.10,WSW,253,0.0,0.0,80,0.00,,,0.00,Wunderground v.1.15,2013-03-31 01:52:00,
2013-03-30 21:57:00,58.7,52.9,30.10,WSW,253,0.0,0.0,81,0.00,,,0.00,Wunderground v.1.15,2013-03-31 01:57:00,
2013-03-30 22:02:00,58.7,52.9,30.10,WSW,253,0.0,0.0,81,0.00,,,0.00,Wunderground v.1.15,2013-03-31 02:02:00,
2013-03-30 22:07:00,58.7,53.2,30.10,WSW,253,0.0,0.0,82,0.00,,,0.00,Wunderground v.1.15,2013-03-31 02:07:00,
2013-03-30 22:12:00,58.7,53.2,30.10,WSW,253,0.0,0.0,82,0.00,,,0.00,Wunderground v.1.15,2013-03-31 02:12:00,
2013-03-30 22:17:00,58.7,53.2,30.10,WSW,253,0.0,0.0,82,0.00,,,0.00,Wunderground v.1.15,2013-03-31 02:17:00,
2013-03-30 22:22:00,58.7,53.2,30.10,WSW,253,0.0,0.0,82,0.00,,,0.00,Wunderground v.1.15,2013-03-31 02:22:00,
2013-03-30 22:28:00,58.7,53.2,30.10,WSW,253,0.0,0.0,82,0.00,,,0.00,Wunderground v.1.15,2013-03-31 02:28:00,
2013-03-30 22:33:00,58.7,53.5,30.10,WSW,253,0.0,0.0,83,0.00,,,0.00,Wunderground v.1.15,2013-03-31 02:33:00,
2013-03-30 22:38:00,58.7,53.5,30.10,WSW,253,0.0,0.0,83,0.00,,,0.00,Wunderground v.1.15,2013-03-31 02:38:00,
2013-03-30 22:43:00,58.7,53.5,30.10,WSW,253,0.0,0.0,83,0.00,,,0.00,Wunderground v.1.15,2013-03-31 02:43:00,
2013-03-30 22:48:00,58.7,53.5,30.10,WSW,253,0.0,0.0,83,0.00,,,0.00,Wunderground v.1.15,2013-03-31 02:48:00,
2013-03-30 22:54:00,58.7,53.5,30.10,WSW,253,0.0,1.0,83,0.00,,,0.00,Wunderground v.1.15,2013-03-31 02:54:00,
2013-03-30 22:59:00,58.7,53.9,30.10,WSW,253,0.0,1.0,84,0.00,,,0.00,Wunderground v.1.15,2013-03-31 02:59:00,
2013-03-30 23:04:00,58.7,53.9,30.10,WSW,253,0.0,0.0,84,0.00,,,0.00,Wunderground v.1.15,2013-03-31 03:04:00,
2013-03-30 23:09:00,58.7,53.9,30.10,WSW,253,0.0,0.0,84,0.00,,,0.00,Wunderground v.1.15,2013-03-31 03:09:00,
2013-03-30 23:14:00,58.9,54.1,30.10,WSW,253,0.0,0.0,84,0.00,,,0.00,Wunderground v.1.15,2013-03-31 03:14:00,
2013-03-30 23:19:00,59.0,54.2,30.10,WSW,253,0.0,1.0,84,0.00,,,0.00,Wunderground v.1.15,2013-03-31 03:19:00,
2013-03-30 23:24:00,59.2,54.4,30.10,WSW,253,0.0,2.0,84,0.00,,,0.00,Wunderground v.1.15,2013-03-31 03:24:00,
2013-03-30 23:29:00,59.3,54.5,30.10,WSW,253,0.0,2.0,84,0.00,,,0.00,Wunderground v.1.15,2013-03-31 03:29:00,
2013-03-30 23:34:00,59.3,54.5,30.10,WSW,253,0.0,0.0,84,0.00,,,0.00,Wunderground v.1.15,2013-03-31 03:34:00,
2013-03-30 23:39:00,59.6,54.8,30.10,WSW,253,1.0,2.0,84,0.00,,,0.00,Wunderground v.1.15,2013-03-31 03:39:00,
2013-03-30 23:44:00,59.8,54.6,30.10,WSW,253,1.0,2.0,83,0.00,,,0.00,Wunderground v.1.15,2013-03-31 03:44:00,
2013-03-30 23:49:00,60.1,54.9,30.10,WSW,253,0.0,2.0,83,0.00,,,0.00,Wunderground v.1.15,2013-03-31 03:49:00,
2013-03-30 23:54:00,60.1,54.6,30.10,WSW,253,0.0,0.0,82,0.00,,,0.00,Wunderground v.1.15,2013-03-31 03:54:00,
2013-03-30 23:59:00,60.2,54.7,30.09,WSW,253,0.0,1.0,82,0.00,,,0.00,Wunderground v.1.15,2013-03-31 03:59:00,